Betagas — V2KA8 — position and weather

sailwx.info

Track history (hours):
 
Tides and Currents Weather Stations Pressure Air Temp Water Temp Dewpoint Dewpoint Depression Visibility Wind Speed Wind Dir Waves Ship Positions

Betagas

Last reported at 2016-Jul-29 16:20 UTC. Time now 2016-Jul-29 17:54 UTC.
Position N 36°60' W 009°42'.

Length 114.6 m; beam 15.7 m; draft 7.4 m.

Type: Tanker. MMSI: 304050636.

Date/timePositionNaut miles runAvg speedWind from/ knotsBaromVisibWave heightAir tempDewpointWater temp
2016-Jul-29 16:20N 36°60' W 009°42'2312.4
2016-Jul-29 14:26N 37°22' W 009°48'1712.5
2016-Jul-29 13:04N 37°39' W 009°53'712.7
2016-Jul-29 12:33N 37°45' W 009°55'1512.3
2016-Jul-29 11:21N 37°60' W 009°60'1012.3
2016-Jul-29 10:33N 38°09' W 010°02'1212.4
2016-Jul-29 09:33N 38°22' W 010°06'1212.4
2016-Jul-29 08:32N 38°34' W 010°10'1212.6
2016-Jul-29 07:33N 38°46' W 010°12'1212.1
2016-Jul-29 06:33N 38°58' W 010°11'1212.3
2016-Jul-29 05:33N 39°10' W 010°12'1312.5
2016-Jul-29 04:31N 39°23' W 010°12'1313.1
2016-Jul-29 03:33N 39°36' W 010°12'1412.4
2016-Jul-29 02:26N 39°50' W 010°12'61211.9
2016-Jul-26 23:14N 49°17' W 004°50'710.7
2016-Jul-26 22:33N 49°20' W 004°40'1110.5
2016-Jul-26 21:27N 49°26' W 004°25'1110.8
2016-Jul-26 20:25N 49°32' W 004°11'1011.5
2016-Jul-26 19:33N 49°37' W 003°57'1212.3
2016-Jul-26 18:33N 49°43' W 003°41'1313.1
2016-Jul-26 17:33N 49°50' W 003°24'1313.5
2016-Jul-26 16:33N 49°57' W 003°06'1313.0
2016-Jul-26 15:33N 50°01' W 002°46'2511.4
2016-Jul-26 13:22N 50°07' W 002°09'6713.8
2016-Jul-26 08:30N 50°25' W 000°27'1616.5
2016-Jul-26 07:33N 50°29' W 000°04'1413.7
2016-Jul-26 06:31N 50°33' E 000°18'1513.0
2016-Jul-26 05:23N 50°38' E 000°40'2211.6
2016-Jul-26 03:32N 50°51' E 001°08'1010.6
2016-Jul-26 02:34N 50°57' E 001°21'1211.7
2016-Jul-26 01:33N 51°06' E 001°33'1413.7
2016-Jul-26 00:33N 51°16' E 001°48'1313.0
2016-Jul-25 23:33N 51°24' E 002°03'1212.4
2016-Jul-25 22:34N 51°22' E 002°23'1312.5
2016-Jul-25 21:33N 51°23' E 002°43'1312.7
2016-Jul-25 20:33N 51°25' E 003°03'1414.0
2016-Jul-25 19:33N 51°25' E 003°25'1111.1
2016-Jul-25 18:34N 51°23' E 003°43'10 9.7
2016-Jul-25 17:33N 51°26' E 003°58'8 7.9
2016-Jul-25 16:33N 51°23' E 004°10'9 9.1
2016-Jul-25 15:33N 51°17' E 004°20'0 0.3
2016-Jul-25 14:33N 51°16' E 004°20'1 0.8
2016-Jul-25 13:33N 51°16' E 004°20'0 0.0
2016-Jul-25 12:33N 51°16' E 004°20'0 0.0
2016-Jul-25 11:27N 51°16' E 004°20'0 0.0
2016-Jul-25 10:30N 51°16' E 004°20'0 0.0
2016-Jul-25 09:33N 51°16' E 004°20'0 0.0
2016-Jul-25 08:33N 51°16' E 004°20'0 0.0
2016-Jul-25 07:21N 51°16' E 004°20'0 0.0
2016-Jul-25 06:33N 51°16' E 004°20'0 0.0
2016-Jul-25 05:27N 51°16' E 004°20'0 0.0
2016-Jul-25 04:33N 51°16' E 004°20'0 0.0
2016-Jul-25 03:30N 51°16' E 004°20'0 0.0
2016-Jul-25 02:30N 51°16' E 004°20'0 0.0
2016-Jul-25 01:33N 51°16' E 004°20'0 0.0
2016-Jul-25 00:30N 51°16' E 004°20'0 0.0
2016-Jul-24 23:30N 51°16' E 004°20'0 0.0
2016-Jul-24 22:30N 51°16' E 004°20'0 0.0
2016-Jul-24 21:30N 51°16' E 004°20'0 0.0
2016-Jul-24 20:30N 51°16' E 004°20'0 0.0
2016-Jul-24 19:30N 51°16' E 004°20'0 0.0
2016-Jul-24 18:30N 51°16' E 004°20'0 0.0
2016-Jul-24 17:27N 51°16' E 004°20'0 0.0
2016-Jul-24 16:33N 51°16' E 004°20'0 0.0
2016-Jul-24 15:30N 51°16' E 004°20'0 0.0
2016-Jul-24 14:33N 51°16' E 004°20'0 0.0
2016-Jul-24 13:33N 51°16' E 004°20'0 0.0
2016-Jul-24 12:27N 51°16' E 004°20'0 0.0
2016-Jul-24 11:33N 51°16' E 004°20'0 0.0
2016-Jul-24 10:30N 51°16' E 004°20'0 0.0
2016-Jul-24 09:33N 51°16' E 004°20'0 0.0
2016-Jul-24 08:30N 51°16' E 004°20'0 0.0
2016-Jul-24 07:33N 51°16' E 004°20'4 4.0
2016-Jul-24 06:33N 51°20' E 004°18'1 1.4
2016-Jul-24 05:33N 51°21' E 004°17'3 2.7
2016-Jul-24 04:33N 51°22' E 004°13'1010.2
2016-Jul-24 03:33N 51°24' E 003°57'1212.3
2016-Jul-24 02:34N 51°26' E 003°38'1515.2
2016-Jul-24 01:33N 51°24' E 003°14'1413.9
2016-Jul-24 00:33N 51°22' E 002°52'1010.2
2016-Jul-23 23:33N 51°22' E 002°36'3 2.4
2016-Jul-23 22:30N 51°24' E 002°34'0 0.0
2016-Jul-23 21:30N 51°24' E 002°34'0 0.1
2016-Jul-23 20:24N 51°24' E 002°34'0 0.1
2016-Jul-23 19:27N 51°24' E 002°34'0 0.1
2016-Jul-23 18:33N 51°24' E 002°34'0 0.0
2016-Jul-23 17:30N 51°24' E 002°34'0 0.0
2016-Jul-23 16:18N 51°24' E 002°34'0 0.0
2016-Jul-23 15:33N 51°24' E 002°34'0 0.0
2016-Jul-23 14:33N 51°24' E 002°34'0 0.0
2016-Jul-23 13:27N 51°24' E 002°34'0 0.1
2016-Jul-23 12:33N 51°24' E 002°34'0 0.0
2016-Jul-23 11:33N 51°24' E 002°34'0 0.0
2016-Jul-23 10:30N 51°24' E 002°34'0 0.0
2016-Jul-23 08:24N 51°24' E 002°34'0 0.0
2016-Jul-23 07:33N 51°24' E 002°34'0 0.1
2016-Jul-23 06:27N 51°24' E 002°34'0 0.0
2016-Jul-23 04:30N 51°24' E 002°34'0 0.0
2016-Jul-23 03:30N 51°24' E 002°34'0 0.0
2016-Jul-23 02:30N 51°24' E 002°34'0 0.0
2016-Jul-23 01:27N 51°24' E 002°34'0 0.1
2016-Jul-23 00:21N 51°24' E 002°34'0 0.1
2016-Jul-22 23:33N 51°24' E 002°34'0 0.0
2016-Jul-22 22:30N 51°24' E 002°34'0 0.0
2016-Jul-22 21:33N 51°24' E 002°34'0 0.0
2016-Jul-22 20:33N 51°24' E 002°34'0 0.0
2016-Jul-22 19:12N 51°24' E 002°34'0 0.1
2016-Jul-22 18:33N 51°24' E 002°34'0 0.1
2016-Jul-22 17:33N 51°24' E 002°34'0 0.0
2016-Jul-22 16:30N 51°24' E 002°34'0 0.0
2016-Jul-22 15:33N 51°24' E 002°34'0 0.0
2016-Jul-22 14:21N 51°24' E 002°34'0 0.0
2016-Jul-22 13:30N 51°24' E 002°34'0 0.1
2016-Jul-22 12:33N 51°24' E 002°34'0 0.1
2016-Jul-22 11:33N 51°24' E 002°34'0 0.0
2016-Jul-22 10:33N 51°24' E 002°34'0 0.0
2016-Jul-22 09:33N 51°24' E 002°34'0 0.0
2016-Jul-22 08:30N 51°24' E 002°34'0 0.0
2016-Jul-22 07:33N 51°24' E 002°34'0 0.0
2016-Jul-22 04:33N 51°24' E 002°34'0 0.0
2016-Jul-22 03:33N 51°24' E 002°34'0 0.0
2016-Jul-22 02:33N 51°24' E 002°34'0 0.0
2016-Jul-22 01:30N 51°24' E 002°34'0 0.0
2016-Jul-22 00:33N 51°24' E 002°34'0 0.1
2016-Jul-21 23:33N 51°24' E 002°34'0 0.1
2016-Jul-21 22:33N 51°24' E 002°34'0 0.0
2016-Jul-21 21:30N 51°24' E 002°34'0 0.0
2016-Jul-21 20:33N 51°24' E 002°34'0 0.0
2016-Jul-21 19:30N 51°24' E 002°34'0 0.0
2016-Jul-21 18:27N 51°24' E 002°34'0 0.1
2016-Jul-21 17:21N 51°24' E 002°34'0 0.0
2016-Jul-21 15:15N 51°24' E 002°34'0 0.0
2016-Jul-21 14:21N 51°24' E 002°34'0 0.0
2016-Jul-21 13:18N 51°24' E 002°34'0 0.0
2016-Jul-21 12:24N 51°24' E 002°34'0 0.1
2016-Jul-21 11:30N 51°24' E 002°34'0 0.1
2016-Jul-21 10:33N 51°24' E 002°34'0 0.0
2016-Jul-21 09:33N 51°24' E 002°34'0 0.0
2016-Jul-21 08:15N 51°24' E 002°34'0 0.0
2016-Jul-21 07:33N 51°24' E 002°34'0 0.1
2016-Jul-21 06:24N 51°24' E 002°34'0 0.1
2016-Jul-21 05:27N 51°24' E 002°34'0 0.0
2016-Jul-21 04:33N 51°24' E 002°34'0 0.0
2016-Jul-21 03:30N 51°24' E 002°34'0 0.0
2016-Jul-21 02:30N 51°24' E 002°34'0 0.0
2016-Jul-21 01:33N 51°24' E 002°34'0 0.1
2016-Jul-21 00:34N 51°24' E 002°34'8 8.4
2016-Jul-20 23:34N 51°20' E 002°23'1413.6
2016-Jul-20 22:33N 51°12' E 002°04'1212.4
2016-Jul-20 21:34N 51°07' E 001°47'1111.3
2016-Jul-20 20:33N 50°59' E 001°34'1010.3
2016-Jul-20 19:33N 50°50' E 001°25'1310.6
2016-Jul-20 18:22N 50°39' E 001°15'3411.2
2016-Jul-20 15:20N 50°23' E 000°28'911.7
2016-Jul-20 14:33N 50°20' E 000°15'1111.2
2016-Jul-20 13:33N 50°14' W 000°00'1312.7
2016-Jul-20 12:34N 50°02' W 000°06'1413.9
2016-Jul-20 11:34N 49°48' W 000°09'1413.6
2016-Jul-20 10:33N 49°34' W 000°11'1010.3
2016-Jul-20 09:34N 49°27' E 000°01'1211.5
2016-Jul-20 08:33N 49°26' E 000°19'9 8.9
2016-Jul-20 07:33N 49°29' E 000°32'1 0.6
2016-Jul-20 06:31N 49°28' E 000°32'0 0.0
2016-Jul-20 04:13N 49°28' E 000°32'0 0.0
2016-Jul-20 01:25N 49°28' E 000°32'0 0.0
2016-Jul-20 00:31N 49°28' E 000°32'0 0.0
2016-Jul-19 23:31N 49°28' E 000°32'0 0.0
2016-Jul-19 22:28N 49°28' E 000°32'0 0.0
2016-Jul-19 21:31N 49°28' E 000°32'0 0.0
2016-Jul-19 20:28N 49°28' E 000°32'0 0.0
2016-Jul-19 19:28N 49°28' E 000°32'  
Track history (hours):
 
Tides and Currents Weather Stations Pressure Air Temp Water Temp Dewpoint Dewpoint Depression Visibility Wind Speed Wind Dir Waves Ship Positions

Betagas

Last reported at 2016-Jul-29 16:20 UTC. Time now 2016-Jul-29 17:54 UTC.
Position N 36°60' W 009°42'.

Length 114.6 m; beam 15.7 m; draft 7.4 m.

Type: Tanker. MMSI: 304050636.

Date/timePositionNaut miles runAvg speedWind from/ knotsBaromVisibWave heightAir tempDewpointWater temp
2016-Jul-29 16:20N 36°60' W 009°42'2312.4
2016-Jul-29 14:26N 37°22' W 009°48'1712.5
2016-Jul-29 13:04N 37°39' W 009°53'712.7
2016-Jul-29 12:33N 37°45' W 009°55'1512.3
2016-Jul-29 11:21N 37°60' W 009°60'1012.3
2016-Jul-29 10:33N 38°09' W 010°02'1212.4
2016-Jul-29 09:33N 38°22' W 010°06'1212.4
2016-Jul-29 08:32N 38°34' W 010°10'1212.6
2016-Jul-29 07:33N 38°46' W 010°12'1212.1
2016-Jul-29 06:33N 38°58' W 010°11'1212.3
2016-Jul-29 05:33N 39°10' W 010°12'1312.5
2016-Jul-29 04:31N 39°23' W 010°12'1313.1
2016-Jul-29 03:33N 39°36' W 010°12'1412.4
2016-Jul-29 02:26N 39°50' W 010°12'61211.9
2016-Jul-26 23:14N 49°17' W 004°50'710.7
2016-Jul-26 22:33N 49°20' W 004°40'1110.5
2016-Jul-26 21:27N 49°26' W 004°25'1110.8
2016-Jul-26 20:25N 49°32' W 004°11'1011.5
2016-Jul-26 19:33N 49°37' W 003°57'1212.3
2016-Jul-26 18:33N 49°43' W 003°41'1313.1
2016-Jul-26 17:33N 49°50' W 003°24'1313.5
2016-Jul-26 16:33N 49°57' W 003°06'1313.0
2016-Jul-26 15:33N 50°01' W 002°46'2511.4
2016-Jul-26 13:22N 50°07' W 002°09'6713.8
2016-Jul-26 08:30N 50°25' W 000°27'1616.5
2016-Jul-26 07:33N 50°29' W 000°04'1413.7
2016-Jul-26 06:31N 50°33' E 000°18'1513.0
2016-Jul-26 05:23N 50°38' E 000°40'2211.6
2016-Jul-26 03:32N 50°51' E 001°08'1010.6
2016-Jul-26 02:34N 50°57' E 001°21'1211.7
2016-Jul-26 01:33N 51°06' E 001°33'1413.7
2016-Jul-26 00:33N 51°16' E 001°48'1313.0
2016-Jul-25 23:33N 51°24' E 002°03'1212.4
2016-Jul-25 22:34N 51°22' E 002°23'1312.5
2016-Jul-25 21:33N 51°23' E 002°43'1312.7
2016-Jul-25 20:33N 51°25' E 003°03'1414.0
2016-Jul-25 19:33N 51°25' E 003°25'1111.1
2016-Jul-25 18:34N 51°23' E 003°43'10 9.7
2016-Jul-25 17:33N 51°26' E 003°58'8 7.9
2016-Jul-25 16:33N 51°23' E 004°10'9 9.1
2016-Jul-25 15:33N 51°17' E 004°20'0 0.3
2016-Jul-25 14:33N 51°16' E 004°20'1 0.8
2016-Jul-25 13:33N 51°16' E 004°20'0 0.0
2016-Jul-25 12:33N 51°16' E 004°20'0 0.0
2016-Jul-25 11:27N 51°16' E 004°20'0 0.0
2016-Jul-25 10:30N 51°16' E 004°20'0 0.0
2016-Jul-25 09:33N 51°16' E 004°20'0 0.0
2016-Jul-25 08:33N 51°16' E 004°20'0 0.0
2016-Jul-25 07:21N 51°16' E 004°20'0 0.0
2016-Jul-25 06:33N 51°16' E 004°20'0 0.0
2016-Jul-25 05:27N 51°16' E 004°20'0 0.0
2016-Jul-25 04:33N 51°16' E 004°20'0 0.0
2016-Jul-25 03:30N 51°16' E 004°20'0 0.0
2016-Jul-25 02:30N 51°16' E 004°20'0 0.0
2016-Jul-25 01:33N 51°16' E 004°20'0 0.0
2016-Jul-25 00:30N 51°16' E 004°20'0 0.0
2016-Jul-24 23:30N 51°16' E 004°20'0 0.0
2016-Jul-24 22:30N 51°16' E 004°20'0 0.0
2016-Jul-24 21:30N 51°16' E 004°20'0 0.0
2016-Jul-24 20:30N 51°16' E 004°20'0 0.0
2016-Jul-24 19:30N 51°16' E 004°20'0 0.0
2016-Jul-24 18:30N 51°16' E 004°20'0 0.0
2016-Jul-24 17:27N 51°16' E 004°20'0 0.0
2016-Jul-24 16:33N 51°16' E 004°20'0 0.0
2016-Jul-24 15:30N 51°16' E 004°20'0 0.0
2016-Jul-24 14:33N 51°16' E 004°20'0 0.0
2016-Jul-24 13:33N 51°16' E 004°20'0 0.0
2016-Jul-24 12:27N 51°16' E 004°20'0 0.0
2016-Jul-24 11:33N 51°16' E 004°20'0 0.0
2016-Jul-24 10:30N 51°16' E 004°20'0 0.0
2016-Jul-24 09:33N 51°16' E 004°20'0 0.0
2016-Jul-24 08:30N 51°16' E 004°20'0 0.0
2016-Jul-24 07:33N 51°16' E 004°20'4 4.0
2016-Jul-24 06:33N 51°20' E 004°18'1 1.4
2016-Jul-24 05:33N 51°21' E 004°17'3 2.7
2016-Jul-24 04:33N 51°22' E 004°13'1010.2
2016-Jul-24 03:33N 51°24' E 003°57'1212.3
2016-Jul-24 02:34N 51°26' E 003°38'1515.2
2016-Jul-24 01:33N 51°24' E 003°14'1413.9
2016-Jul-24 00:33N 51°22' E 002°52'1010.2
2016-Jul-23 23:33N 51°22' E 002°36'3 2.4
2016-Jul-23 22:30N 51°24' E 002°34'0 0.0
2016-Jul-23 21:30N 51°24' E 002°34'0 0.1
2016-Jul-23 20:24N 51°24' E 002°34'0 0.1
2016-Jul-23 19:27N 51°24' E 002°34'0 0.1
2016-Jul-23 18:33N 51°24' E 002°34'0 0.0
2016-Jul-23 17:30N 51°24' E 002°34'0 0.0
2016-Jul-23 16:18N 51°24' E 002°34'0 0.0
2016-Jul-23 15:33N 51°24' E 002°34'0 0.0
2016-Jul-23 14:33N 51°24' E 002°34'0 0.0
2016-Jul-23 13:27N 51°24' E 002°34'0 0.1
2016-Jul-23 12:33N 51°24' E 002°34'0 0.0
2016-Jul-23 11:33N 51°24' E 002°34'0 0.0
2016-Jul-23 10:30N 51°24' E 002°34'0 0.0
2016-Jul-23 08:24N 51°24' E 002°34'0 0.0
2016-Jul-23 07:33N 51°24' E 002°34'0 0.1
2016-Jul-23 06:27N 51°24' E 002°34'0 0.0
2016-Jul-23 04:30N 51°24' E 002°34'0 0.0
2016-Jul-23 03:30N 51°24' E 002°34'0 0.0
2016-Jul-23 02:30N 51°24' E 002°34'0 0.0
2016-Jul-23 01:27N 51°24' E 002°34'0 0.1
2016-Jul-23 00:21N 51°24' E 002°34'0 0.1
2016-Jul-22 23:33N 51°24' E 002°34'0 0.0
2016-Jul-22 22:30N 51°24' E 002°34'0 0.0
2016-Jul-22 21:33N 51°24' E 002°34'0 0.0
2016-Jul-22 20:33N 51°24' E 002°34'0 0.0
2016-Jul-22 19:12N 51°24' E 002°34'0 0.1
2016-Jul-22 18:33N 51°24' E 002°34'0 0.1
2016-Jul-22 17:33N 51°24' E 002°34'0 0.0
2016-Jul-22 16:30N 51°24' E 002°34'0 0.0
2016-Jul-22 15:33N 51°24' E 002°34'0 0.0
2016-Jul-22 14:21N 51°24' E 002°34'0 0.0
2016-Jul-22 13:30N 51°24' E 002°34'0 0.1
2016-Jul-22 12:33N 51°24' E 002°34'0 0.1
2016-Jul-22 11:33N 51°24' E 002°34'0 0.0
2016-Jul-22 10:33N 51°24' E 002°34'0 0.0
2016-Jul-22 09:33N 51°24' E 002°34'0 0.0
2016-Jul-22 08:30N 51°24' E 002°34'0 0.0
2016-Jul-22 07:33N 51°24' E 002°34'0 0.0
2016-Jul-22 04:33N 51°24' E 002°34'0 0.0
2016-Jul-22 03:33N 51°24' E 002°34'0 0.0
2016-Jul-22 02:33N 51°24' E 002°34'0 0.0
2016-Jul-22 01:30N 51°24' E 002°34'0 0.0
2016-Jul-22 00:33N 51°24' E 002°34'0 0.1
2016-Jul-21 23:33N 51°24' E 002°34'0 0.1
2016-Jul-21 22:33N 51°24' E 002°34'0 0.0
2016-Jul-21 21:30N 51°24' E 002°34'0 0.0
2016-Jul-21 20:33N 51°24' E 002°34'0 0.0
2016-Jul-21 19:30N 51°24' E 002°34'0 0.0
2016-Jul-21 18:27N 51°24' E 002°34'0 0.1
2016-Jul-21 17:21N 51°24' E 002°34'0 0.0
2016-Jul-21 15:15N 51°24' E 002°34'0 0.0
2016-Jul-21 14:21N 51°24' E 002°34'0 0.0
2016-Jul-21 13:18N 51°24' E 002°34'0 0.0
2016-Jul-21 12:24N 51°24' E 002°34'0 0.1
2016-Jul-21 11:30N 51°24' E 002°34'0 0.1
2016-Jul-21 10:33N 51°24' E 002°34'0 0.0
2016-Jul-21 09:33N 51°24' E 002°34'0 0.0
2016-Jul-21 08:15N 51°24' E 002°34'0 0.0
2016-Jul-21 07:33N 51°24' E 002°34'0 0.1
2016-Jul-21 06:24N 51°24' E 002°34'0 0.1
2016-Jul-21 05:27N 51°24' E 002°34'0 0.0
2016-Jul-21 04:33N 51°24' E 002°34'0 0.0
2016-Jul-21 03:30N 51°24' E 002°34'0 0.0
2016-Jul-21 02:30N 51°24' E 002°34'0 0.0
2016-Jul-21 01:33N 51°24' E 002°34'0 0.1
2016-Jul-21 00:34N 51°24' E 002°34'8 8.4
2016-Jul-20 23:34N 51°20' E 002°23'1413.6
2016-Jul-20 22:33N 51°12' E 002°04'1212.4
2016-Jul-20 21:34N 51°07' E 001°47'1111.3
2016-Jul-20 20:33N 50°59' E 001°34'1010.3
2016-Jul-20 19:33N 50°50' E 001°25'1310.6
2016-Jul-20 18:22N 50°39' E 001°15'3411.2
2016-Jul-20 15:20N 50°23' E 000°28'911.7
2016-Jul-20 14:33N 50°20' E 000°15'1111.2
2016-Jul-20 13:33N 50°14' W 000°00'1312.7
2016-Jul-20 12:34N 50°02' W 000°06'1413.9
2016-Jul-20 11:34N 49°48' W 000°09'1413.6
2016-Jul-20 10:33N 49°34' W 000°11'1010.3
2016-Jul-20 09:34N 49°27' E 000°01'1211.5
2016-Jul-20 08:33N 49°26' E 000°19'9 8.9
2016-Jul-20 07:33N 49°29' E 000°32'1 0.6
2016-Jul-20 06:31N 49°28' E 000°32'0 0.0
2016-Jul-20 04:13N 49°28' E 000°32'0 0.0
2016-Jul-20 01:25N 49°28' E 000°32'0 0.0
2016-Jul-20 00:31N 49°28' E 000°32'0 0.0
2016-Jul-19 23:31N 49°28' E 000°32'0 0.0
2016-Jul-19 22:28N 49°28' E 000°32'0 0.0
2016-Jul-19 21:31N 49°28' E 000°32'0 0.0
2016-Jul-19 20:28N 49°28' E 000°32'0 0.0
2016-Jul-19 19:28N 49°28' E 000°32'  

Dump ship's entire track history